sensor_id;sensor_type;location;lat;lon;timestamp;pressure;altitude;pressure_sealevel;temperature;humidity
42603;BME280;28233;55.748;48.752;2023-05-19T00:00:53;99556.50;;;14.21;37.51
42603;BME280;28233;55.748;48.752;2023-05-19T00:03:10;99553.50;;;14.13;37.30
42603;BME280;28233;55.748;48.752;2023-05-19T00:05:29;99557.63;;;14.20;37.39
42603;BME280;28233;55.748;48.752;2023-05-19T00:07:32;99558.09;;;14.22;37.68
42603;BME280;28233;55.748;48.752;2023-05-19T00:09:51;99537.59;;;14.10;37.28
42603;BME280;28233;55.748;48.752;2023-05-19T00:12:08;99550.84;;;14.17;37.83
42603;BME280;28233;55.748;48.752;2023-05-19T00:14:26;99554.41;;;14.17;38.19
42603;BME280;28233;55.748;48.752;2023-05-19T00:16:44;99558.56;;;14.11;38.47
42603;BME280;28233;55.748;48.752;2023-05-19T00:19:02;99556.91;;;13.98;39.14
42603;BME280;28233;55.748;48.752;2023-05-19T00:21:06;99563.13;;;13.95;39.76
42603;BME280;28233;55.748;48.752;2023-05-19T00:23:10;99572.94;;;13.92;39.25
42603;BME280;28233;55.748;48.752;2023-05-19T00:25:13;99567.16;;;13.85;39.41
42603;BME280;28233;55.748;48.752;2023-05-19T00:27:15;99568.19;;;13.81;39.50
42603;BME280;28233;55.748;48.752;2023-05-19T00:29:18;99576.78;;;13.79;39.78
42603;BME280;28233;55.748;48.752;2023-05-19T00:31:21;99564.81;;;13.75;40.23
42603;BME280;28233;55.748;48.752;2023-05-19T00:33:24;99568.28;;;13.72;40.34
42603;BME280;28233;55.748;48.752;2023-05-19T00:35:26;99574.00;;;13.67;40.44
42603;BME280;28233;55.748;48.752;2023-05-19T00:37:29;99566.41;;;13.64;40.68
42603;BME280;28233;55.748;48.752;2023-05-19T00:39:32;99572.59;;;13.61;40.72
42603;BME280;28233;55.748;48.752;2023-05-19T00:41:34;99570.53;;;13.58;40.98
42603;BME280;28233;55.748;48.752;2023-05-19T00:43:37;99578.81;;;13.58;40.98
42603;BME280;28233;55.748;48.752;2023-05-19T00:45:40;99594.09;;;13.55;41.49
42603;BME280;28233;55.748;48.752;2023-05-19T00:47:42;99593.31;;;13.55;41.55
42603;BME280;28233;55.748;48.752;2023-05-19T00:49:45;99593.50;;;13.49;42.09
42603;BME280;28233;55.748;48.752;2023-05-19T00:51:48;99593.84;;;13.48;41.90
42603;BME280;28233;55.748;48.752;2023-05-19T00:53:51;99589.00;;;13.45;41.74
42603;BME280;28233;55.748;48.752;2023-05-19T00:55:54;99586.91;;;13.42;41.46
42603;BME280;28233;55.748;48.752;2023-05-19T00:57:57;99578.84;;;13.37;41.07
42603;BME280;28233;55.748;48.752;2023-05-19T00:59:59;99584.16;;;13.42;40.60
42603;BME280;28233;55.748;48.752;2023-05-19T01:02:06;99584.63;;;13.44;40.23
42603;BME280;28233;55.748;48.752;2023-05-19T01:04:09;99589.13;;;13.48;40.03
42603;BME280;28233;55.748;48.752;2023-05-19T01:06:12;99577.53;;;13.55;39.49
42603;BME280;28233;55.748;48.752;2023-05-19T01:08:16;99580.88;;;13.61;39.22
42603;BME280;28233;55.748;48.752;2023-05-19T01:10:19;99584.59;;;13.65;38.71
42603;BME280;28233;55.748;48.752;2023-05-19T01:12:22;99575.84;;;13.63;38.84
42603;BME280;28233;55.748;48.752;2023-05-19T01:14:25;99575.28;;;13.69;38.54
42603;BME280;28233;55.748;48.752;2023-05-19T01:16:41;99578.03;;;13.69;38.30
42603;BME280;28233;55.748;48.752;2023-05-19T01:30:47;99584.81;;;13.60;38.60
42603;BME280;28233;55.748;48.752;2023-05-19T01:33:01;99591.81;;;13.57;38.62
42603;BME280;28233;55.748;48.752;2023-05-19T01:35:05;99585.13;;;13.58;38.94
42603;BME280;28233;55.748;48.752;2023-05-19T01:37:12;99583.97;;;13.59;38.66
42603;BME280;28233;55.748;48.752;2023-05-19T01:39:16;99583.19;;;13.59;38.84
42603;BME280;28233;55.748;48.752;2023-05-19T01:41:21;99581.56;;;13.58;38.29
42603;BME280;28233;55.748;48.752;2023-05-19T01:43:25;99583.97;;;13.59;37.96
42603;BME280;28233;55.748;48.752;2023-05-19T01:45:30;99583.19;;;13.59;38.45
42603;BME280;28233;55.748;48.752;2023-05-19T01:47:35;99584.81;;;13.60;38.36
42603;BME280;28233;55.748;48.752;2023-05-19T01:49:39;99590.31;;;13.60;38.61
42603;BME280;28233;55.748;48.752;2023-05-19T01:51:42;99585.59;;;13.60;38.83
42603;BME280;28233;55.748;48.752;2023-05-19T01:53:45;99589.97;;;13.61;39.40
42603;BME280;28233;55.748;48.752;2023-05-19T01:55:50;99595.97;;;13.63;39.20
42603;BME280;28233;55.748;48.752;2023-05-19T01:58:16;99592.06;;;13.64;39.80
42603;BME280;28233;55.748;48.752;2023-05-19T02:05:22;99578.75;;;13.66;39.20
42603;BME280;28233;55.748;48.752;2023-05-19T02:07:43;99589.41;;;13.68;40.62
42603;BME280;28233;55.748;48.752;2023-05-19T02:10:00;99584.59;;;13.65;40.06
42603;BME280;28233;55.748;48.752;2023-05-19T02:12:13;99588.72;;;13.71;40.13
42603;BME280;28233;55.748;48.752;2023-05-19T02:14:52;99582.53;;;13.74;39.64
42603;BME280;28233;55.748;48.752;2023-05-19T02:16:47;99578.63;;;13.75;39.49
42603;BME280;28233;55.748;48.752;2023-05-19T02:18:50;99577.59;;;13.80;39.47
42603;BME280;28233;55.748;48.752;2023-05-19T02:20:55;99573.81;;;13.84;39.52
42603;BME280;28233;55.748;48.752;2023-05-19T02:22:57;99587.41;;;13.89;39.41
42603;BME280;28233;55.748;48.752;2023-05-19T02:25:00;99575.31;;;13.94;39.75
42603;BME280;28233;55.748;48.752;2023-05-19T02:27:04;99586.16;;;13.99;39.53
42603;BME280;28233;55.748;48.752;2023-05-19T02:29:07;99585.13;;;14.04;39.34
42603;BME280;28233;55.748;48.752;2023-05-19T02:31:10;99589.75;;;14.12;39.25
42603;BME280;28233;55.748;48.752;2023-05-19T02:33:12;99586.75;;;14.17;39.68
42603;BME280;28233;55.748;48.752;2023-05-19T02:35:15;99588.47;;;14.22;40.02
42603;BME280;28233;55.748;48.752;2023-05-19T02:37:18;99588.63;;;14.25;40.06
42603;BME280;28233;55.748;48.752;2023-05-19T02:39:25;99575.22;;;14.27;40.54
42603;BME280;28233;55.748;48.752;2023-05-19T02:41:27;99576.28;;;14.35;39.95
42603;BME280;28233;55.748;48.752;2023-05-19T02:43:30;99580.78;;;14.40;40.45
42603;BME280;28233;55.748;48.752;2023-05-19T02:45:33;99584.44;;;14.44;41.06
42603;BME280;28233;55.748;48.752;2023-05-19T02:47:35;99582.28;;;14.49;41.57
42603;BME280;28233;55.748;48.752;2023-05-19T02:49:39;99582.38;;;14.53;42.11
42603;BME280;28233;55.748;48.752;2023-05-19T02:51:42;99581.72;;;14.56;41.81
42603;BME280;28233;55.748;48.752;2023-05-19T02:53:45;99581.03;;;14.59;41.62
42603;BME280;28233;55.748;48.752;2023-05-19T02:55:47;99580.78;;;14.64;42.71
42603;BME280;28233;55.748;48.752;2023-05-19T02:57:50;99580.22;;;14.71;42.48
42603;BME280;28233;55.748;48.752;2023-05-19T02:59:53;99586.28;;;14.76;42.96
42603;BME280;28233;55.748;48.752;2023-05-19T03:02:00;99583.31;;;14.82;43.10
42603;BME280;28233;55.748;48.752;2023-05-19T03:04:03;99590.19;;;14.88;43.24
42603;BME280;28233;55.748;48.752;2023-05-19T03:06:06;99586.72;;;14.91;43.69
42603;BME280;28233;55.748;48.752;2023-05-19T03:08:12;99587.19;;;14.93;43.88
42603;BME280;28233;55.748;48.752;2023-05-19T03:10:14;99585.81;;;14.99;43.65
42603;BME280;28233;55.748;48.752;2023-05-19T03:12:17;99589.03;;;15.01;43.87
42603;BME280;28233;55.748;48.752;2023-05-19T03:14:20;99584.28;;;15.01;43.86
42603;BME280;28233;55.748;48.752;2023-05-19T03:16:25;99595.22;;;15.10;44.73
42603;BME280;28233;55.748;48.752;2023-05-19T03:18:29;99590.84;;;15.09;45.14
42603;BME280;28233;55.748;48.752;2023-05-19T03:20:32;99590.94;;;15.13;45.13
42603;BME280;28233;55.748;48.752;2023-05-19T03:22:35;99592.56;;;15.14;45.98
42603;BME280;28233;55.748;48.752;2023-05-19T03:24:38;99582.66;;;15.13;47.23
42603;BME280;28233;55.748;48.752;2023-05-19T03:26:40;99590.59;;;15.14;46.35
42603;BME280;28233;55.748;48.752;2023-05-19T03:28:44;99592.31;;;15.19;46.62
42603;BME280;28233;55.748;48.752;2023-05-19T03:30:46;99591.50;;;15.18;46.60
42603;BME280;28233;55.748;48.752;2023-05-19T03:32:51;99585.50;;;15.16;46.67
42603;BME280;28233;55.748;48.752;2023-05-19T03:34:54;99595.97;;;15.23;47.04
42603;BME280;28233;55.748;48.752;2023-05-19T03:36:57;99589.66;;;15.22;46.88
42603;BME280;28233;55.748;48.752;2023-05-19T03:38:59;99591.72;;;15.26;47.22
42603;BME280;28233;55.748;48.752;2023-05-19T03:41:02;99597.16;;;15.22;47.96
42603;BME280;28233;55.748;48.752;2023-05-19T03:43:05;99596.34;;;15.21;48.17
42603;BME280;28233;55.748;48.752;2023-05-19T03:45:08;99597.94;;;15.22;48.33
42603;BME280;28233;55.748;48.752;2023-05-19T03:47:11;99591.50;;;15.18;48.04
42603;BME280;28233;55.748;48.752;2023-05-19T03:49:14;99604.19;;;15.19;48.23
42603;BME280;28233;55.748;48.752;2023-05-19T03:51:17;99598.28;;;15.21;47.29
42603;BME280;28233;55.748;48.752;2023-05-19T03:53:20;99596.44;;;15.25;48.28
42603;BME280;28233;55.748;48.752;2023-05-19T03:55:22;99596.91;;;15.27;48.53
42603;BME280;28233;55.748;48.752;2023-05-19T03:57:25;99598.63;;;15.32;48.47
42603;BME280;28233;55.748;48.752;2023-05-19T03:59:28;99594.78;;;15.36;49.39
42603;BME280;28233;55.748;48.752;2023-05-19T04:01:30;99598.56;;;15.44;48.78
42603;BME280;28233;55.748;48.752;2023-05-19T04:03:33;99587.59;;;15.48;49.00
42603;BME280;28233;55.748;48.752;2023-05-19T04:05:36;99597.69;;;15.56;49.87
42603;BME280;28233;55.748;48.752;2023-05-19T04:07:39;99595.59;;;15.65;50.00
42603;BME280;28233;55.748;48.752;2023-05-19T04:09:43;99608.06;;;15.71;49.52
42603;BME280;28233;55.748;48.752;2023-05-19T04:11:46;99597.06;;;15.75;49.58
42603;BME280;28233;55.748;48.752;2023-05-19T04:13:49;99598.88;;;15.83;48.64
42603;BME280;28233;55.748;48.752;2023-05-19T04:15:51;99594.41;;;15.94;48.56
42603;BME280;28233;55.748;48.752;2023-05-19T04:17:54;99594.59;;;16.01;48.52
42603;BME280;28233;55.748;48.752;2023-05-19T04:19:57;99599.06;;;16.06;49.19
42603;BME280;28233;55.748;48.752;2023-05-19T04:22:00;99593.69;;;16.13;49.02
42603;BME280;28233;55.748;48.752;2023-05-19T04:24:03;99603.03;;;16.21;48.90
42603;BME280;28233;55.748;48.752;2023-05-19T04:26:07;99606.31;;;16.26;47.88
42603;BME280;28233;55.748;48.752;2023-05-19T04:28:10;99598.97;;;16.34;47.55
42603;BME280;28233;55.748;48.752;2023-05-19T04:30:14;99595.22;;;16.42;47.93
42603;BME280;28233;55.748;48.752;2023-05-19T04:32:23;99603.72;;;16.49;47.31
42603;BME280;28233;55.748;48.752;2023-05-19T04:34:27;99589.22;;;16.56;46.71
42603;BME280;28233;55.748;48.752;2023-05-19T04:36:29;99590.19;;;16.64;47.32
42603;BME280;28233;55.748;48.752;2023-05-19T04:38:33;99592.38;;;16.74;47.48
42603;BME280;28233;55.748;48.752;2023-05-19T04:40:35;99587.03;;;16.81;47.02
42603;BME280;28233;55.748;48.752;2023-05-19T04:42:38;99591.16;;;16.87;46.98
42603;BME280;28233;55.748;48.752;2023-05-19T04:44:44;99588.53;;;16.95;46.65
42603;BME280;28233;55.748;48.752;2023-05-19T04:46:47;99579.63;;;17.05;47.02
42603;BME280;28233;55.748;48.752;2023-05-19T04:48:52;99583.38;;;17.13;45.78
42603;BME280;28233;55.748;48.752;2023-05-19T04:50:56;99584.66;;;17.19;45.56
42603;BME280;28233;55.748;48.752;2023-05-19T04:52:59;99580.09;;;17.26;46.13
42603;BME280;28233;55.748;48.752;2023-05-19T04:55:02;99591.47;;;17.41;45.82
42603;BME280;28233;55.748;48.752;2023-05-19T04:57:07;99598.72;;;17.45;46.69
42603;BME280;28233;55.748;48.752;2023-05-19T04:59:11;99592.50;;;17.52;47.43
42603;BME280;28233;55.748;48.752;2023-05-19T05:01:14;99579.03;;;17.54;45.28
42603;BME280;28233;55.748;48.752;2023-05-19T05:03:17;99601.84;;;17.63;46.12
42603;BME280;28233;55.748;48.752;2023-05-19T05:05:20;99594.38;;;17.67;44.81
42603;BME280;28233;55.748;48.752;2023-05-19T05:07:23;99594.47;;;17.71;45.88
42603;BME280;28233;55.748;48.752;2023-05-19T05:09:25;99592.16;;;17.77;46.61
42603;BME280;28233;55.748;48.752;2023-05-19T05:11:28;99595.84;;;17.81;46.51
42603;BME280;28233;55.748;48.752;2023-05-19T05:13:31;99590.00;;;17.86;48.09
42603;BME280;28233;55.748;48.752;2023-05-19T05:15:34;99600.44;;;17.92;46.47
42603;BME280;28233;55.748;48.752;2023-05-19T05:17:37;99604.50;;;17.99;45.60
42603;BME280;28233;55.748;48.752;2023-05-19T05:19:40;99603.03;;;18.05;46.10
42603;BME280;28233;55.748;48.752;2023-05-19T05:21:43;99603.09;;;18.08;45.52
42603;BME280;28233;55.748;48.752;2023-05-19T05:23:47;99602.81;;;18.13;45.89
42603;BME280;28233;55.748;48.752;2023-05-19T05:25:50;99615.66;;;18.22;45.90
42603;BME280;28233;55.748;48.752;2023-05-19T05:27:53;99606.97;;;18.27;45.70
42603;BME280;28233;55.748;48.752;2023-05-19T05:29:56;99611.00;;;18.29;45.43
42603;BME280;28233;55.748;48.752;2023-05-19T05:32:00;99611.44;;;18.31;41.90
42603;BME280;28233;55.748;48.752;2023-05-19T05:34:03;99611.44;;;18.31;42.21
42603;BME280;28233;55.748;48.752;2023-05-19T05:36:06;99617.06;;;18.35;43.03
42603;BME280;28233;55.748;48.752;2023-05-19T05:38:09;99615.53;;;18.37;43.15
42603;BME280;28233;55.748;48.752;2023-05-19T05:40:13;99610.41;;;18.40;42.89
42603;BME280;28233;55.748;48.752;2023-05-19T05:42:15;99616.50;;;18.49;44.89
42603;BME280;28233;55.748;48.752;2023-05-19T05:44:18;99613.75;;;18.52;42.90
42603;BME280;28233;55.748;48.752;2023-05-19T05:46:20;99615.78;;;18.55;42.89
42603;BME280;28233;55.748;48.752;2023-05-19T05:48:23;99615.50;;;18.61;42.62
42603;BME280;28233;55.748;48.752;2023-05-19T05:50:26;99617.59;;;18.67;39.75
42603;BME280;28233;55.748;48.752;2023-05-19T05:52:30;99614.84;;;18.71;39.77
42603;BME280;28233;55.748;48.752;2023-05-19T05:54:34;99613.28;;;18.73;40.56
42603;BME280;28233;55.748;48.752;2023-05-19T05:56:37;99613.28;;;18.73;40.34
42603;BME280;28233;55.748;48.752;2023-05-19T05:58:40;99618.50;;;18.75;41.04
42603;BME280;28233;55.748;48.752;2023-05-19T06:00:42;99623.41;;;18.82;41.41
42603;BME280;28233;55.748;48.752;2023-05-19T06:02:47;99620.28;;;18.87;41.31
42603;BME280;28233;55.748;48.752;2023-05-19T06:04:51;99622.31;;;18.90;42.23
42603;BME280;28233;55.748;48.752;2023-05-19T06:06:55;99625.56;;;18.95;41.35
42603;BME280;28233;55.748;48.752;2023-05-19T06:09:03;99626.09;;;19.05;42.43
42603;BME280;28233;55.748;48.752;2023-05-19T06:11:05;99623.31;;;19.05;42.45
42603;BME280;28233;55.748;48.752;2023-05-19T06:13:10;99625.41;;;19.11;42.93
42603;BME280;28233;55.748;48.752;2023-05-19T06:15:13;99624.69;;;19.18;43.28
42603;BME280;28233;55.748;48.752;2023-05-19T06:17:15;99621.06;;;19.14;42.65
42603;BME280;28233;55.748;48.752;2023-05-19T06:19:18;99622.69;;;19.15;43.18
42603;BME280;28233;55.748;48.752;2023-05-19T06:21:24;99619.03;;;19.11;42.81
42603;BME280;28233;55.748;48.752;2023-05-19T06:23:26;99627.81;;;19.13;44.22
42603;BME280;28233;55.748;48.752;2023-05-19T06:25:30;99625.50;;;19.18;43.23
42603;BME280;28233;55.748;48.752;2023-05-19T06:27:34;99619.13;;;19.18;42.11
42603;BME280;28233;55.748;48.752;2023-05-19T06:29:36;99627.91;;;19.20;42.47
42603;BME280;28233;55.748;48.752;2023-05-19T06:31:39;99625.94;;;19.20;42.37
42603;BME280;28233;55.748;48.752;2023-05-19T06:33:42;99625.59;;;19.26;41.91
42603;BME280;28233;55.748;48.752;2023-05-19T06:35:44;99626.50;;;19.33;40.86
42603;BME280;28233;55.748;48.752;2023-05-19T06:37:47;99625.31;;;19.34;40.80
42603;BME280;28233;55.748;48.752;2023-05-19T06:39:52;99632.81;;;19.30;40.57
42603;BME280;28233;55.748;48.752;2023-05-19T06:41:55;99629.19;;;19.26;39.62
42603;BME280;28233;55.748;48.752;2023-05-19T06:43:57;99627.94;;;19.23;39.81
42603;BME280;28233;55.748;48.752;2023-05-19T06:46:01;99628.00;;;19.27;40.58
42603;BME280;28233;55.748;48.752;2023-05-19T06:48:03;99631.22;;;19.29;40.59
42603;BME280;28233;55.748;48.752;2023-05-19T06:50:09;99635.22;;;19.32;40.95
42603;BME280;28233;55.748;48.752;2023-05-19T06:52:12;99630.56;;;19.39;41.68
42603;BME280;28233;55.748;48.752;2023-05-19T06:54:15;99630.63;;;19.47;41.60
42603;BME280;28233;55.748;48.752;2023-05-19T06:56:17;99637.00;;;19.47;40.93
42603;BME280;28233;55.748;48.752;2023-05-19T06:58:20;99635.41;;;19.46;40.39
42603;BME280;28233;55.748;48.752;2023-05-19T07:00:23;99635.47;;;19.50;41.35
42603;BME280;28233;55.748;48.752;2023-05-19T07:02:26;99635.50;;;19.53;42.56
42603;BME280;28233;55.748;48.752;2023-05-19T07:04:29;99637.16;;;19.58;41.02
42603;BME280;28233;55.748;48.752;2023-05-19T07:06:31;99640.38;;;19.63;41.62
42603;BME280;28233;55.748;48.752;2023-05-19T07:08:35;99636.91;;;19.70;42.19
42603;BME280;28233;55.748;48.752;2023-05-19T07:10:38;99630.19;;;19.75;41.77
42603;BME280;28233;55.748;48.752;2023-05-19T07:12:41;99635.03;;;19.78;42.16
42603;BME280;28233;55.748;48.752;2023-05-19T07:14:44;99650.66;;;19.86;41.17
42603;BME280;28233;55.748;48.752;2023-05-19T07:16:46;99648.38;;;19.95;41.46
42603;BME280;28233;55.748;48.752;2023-05-19T07:18:49;99642.00;;;19.98;40.62
42603;BME280;28233;55.748;48.752;2023-05-19T07:20:52;99645.59;;;19.99;41.54
42603;BME280;28233;55.748;48.752;2023-05-19T07:22:55;99649.97;;;19.96;42.06
42603;BME280;28233;55.748;48.752;2023-05-19T07:24:58;99651.94;;;19.96;42.42
42603;BME280;28233;55.748;48.752;2023-05-19T07:27:00;99640.84;;;19.99;41.75
42603;BME280;28233;55.748;48.752;2023-05-19T07:29:03;99650.50;;;20.09;41.76
42603;BME280;28233;55.748;48.752;2023-05-19T07:31:06;99639.38;;;20.13;41.82
42603;BME280;28233;55.748;48.752;2023-05-19T07:33:08;99645.00;;;20.16;42.27
42603;BME280;28233;55.748;48.752;2023-05-19T07:35:11;99642.28;;;20.23;42.81
42603;BME280;28233;55.748;48.752;2023-05-19T07:37:14;99631.50;;;20.22;40.43
42603;BME280;28233;55.748;48.752;2023-05-19T07:39:17;99636.78;;;20.34;40.57
42603;BME280;28233;55.748;48.752;2023-05-19T07:41:21;99641.28;;;20.46;42.25
42603;BME280;28233;55.748;48.752;2023-05-19T07:43:24;99642.59;;;20.59;42.18
42603;BME280;28233;55.748;48.752;2023-05-19T07:45:29;99633.13;;;20.67;42.51
42603;BME280;28233;55.748;48.752;2023-05-19T07:47:32;99637.53;;;20.76;42.05
42603;BME280;28233;55.748;48.752;2023-05-19T07:49:35;99631.22;;;20.86;41.40
42603;BME280;28233;55.748;48.752;2023-05-19T07:51:37;99635.28;;;20.92;41.93
42603;BME280;28233;55.748;48.752;2023-05-19T07:53:40;99635.69;;;20.94;40.75
42603;BME280;28233;55.748;48.752;2023-05-19T07:55:43;99641.66;;;20.93;40.47
42603;BME280;28233;55.748;48.752;2023-05-19T07:57:45;99630.94;;;20.98;41.35
42603;BME280;28233;55.748;48.752;2023-05-19T07:59:48;99635.75;;;21.05;42.07
42603;BME280;28233;55.748;48.752;2023-05-19T08:01:51;99631.38;;;21.11;40.73
42603;BME280;28233;55.748;48.752;2023-05-19T08:03:54;99635.44;;;21.21;40.44
42603;BME280;28233;55.748;48.752;2023-05-19T08:05:57;99642.69;;;21.29;41.10
42603;BME280;28233;55.748;48.752;2023-05-19T08:07:59;99645.47;;;21.29;38.85
42603;BME280;28233;55.748;48.752;2023-05-19T08:10:02;99635.13;;;21.37;40.76
42603;BME280;28233;55.748;48.752;2023-05-19T08:12:06;99639.56;;;21.41;38.85
42603;BME280;28233;55.748;48.752;2023-05-19T08:14:09;99635.56;;;21.42;37.23
42603;BME280;28233;55.748;48.752;2023-05-19T08:16:12;99639.19;;;21.46;38.80
42603;BME280;28233;55.748;48.752;2023-05-19T08:18:14;99640.41;;;21.56;38.17
42603;BME280;28233;55.748;48.752;2023-05-19T08:20:18;99636.44;;;21.57;38.55
42603;BME280;28233;55.748;48.752;2023-05-19T08:22:21;99636.47;;;21.64;38.12
42603;BME280;28233;55.748;48.752;2023-05-19T08:24:24;99630.06;;;21.60;36.37
42603;BME280;28233;55.748;48.752;2023-05-19T08:26:28;99639.25;;;21.57;35.95
42603;BME280;28233;55.748;48.752;2023-05-19T08:28:30;99632.84;;;21.60;36.23
42603;BME280;28233;55.748;48.752;2023-05-19T08:30:33;99639.25;;;21.68;37.01
42603;BME280;28233;55.748;48.752;2023-05-19T08:32:36;99638.53;;;21.78;38.34
42603;BME280;28233;55.748;48.752;2023-05-19T08:34:39;99638.13;;;21.83;38.60
42603;BME280;28233;55.748;48.752;2023-05-19T08:36:42;99630.56;;;21.87;37.65
42603;BME280;28233;55.748;48.752;2023-05-19T08:38:46;99635.75;;;21.92;37.61
42603;BME280;28233;55.748;48.752;2023-05-19T08:40:49;99630.94;;;21.86;34.63
42603;BME280;28233;55.748;48.752;2023-05-19T08:42:52;99636.53;;;21.89;36.03
42603;BME280;28233;55.748;48.752;2023-05-19T08:44:55;99633.38;;;21.98;37.44
42603;BME280;28233;55.748;48.752;2023-05-19T08:47:03;99637.34;;;22.01;36.05
42603;BME280;28233;55.748;48.752;2023-05-19T08:49:16;99623.78;;;22.06;36.76
42603;BME280;28233;55.748;48.752;2023-05-19T08:53:51;99632.19;;;22.17;33.51
42603;BME280;28233;55.748;48.752;2023-05-19T08:56:01;99640.19;;;22.19;33.63
42603;BME280;28233;55.748;48.752;2023-05-19T08:58:11;99635.84;;;22.28;33.97
42603;BME280;28233;55.748;48.752;2023-05-19T09:00:15;99637.44;;;22.29;34.24
42603;BME280;28233;55.748;48.752;2023-05-19T09:02:18;99636.66;;;22.32;35.03
42603;BME280;28233;55.748;48.752;2023-05-19T09:04:21;99636.63;;;22.36;35.02
42603;BME280;28233;55.748;48.752;2023-05-19T09:06:27;99642.25;;;22.43;33.74
42603;BME280;28233;55.748;48.752;2023-05-19T09:08:34;99637.47;;;22.51;32.99
42603;BME280;28233;55.748;48.752;2023-05-19T09:10:37;99632.25;;;22.56;33.73
42603;BME280;28233;55.748;48.752;2023-05-19T09:12:40;99637.03;;;22.59;34.93
42603;BME280;28233;55.748;48.752;2023-05-19T09:14:44;99632.66;;;22.66;35.45
42603;BME280;28233;55.748;48.752;2023-05-19T09:16:47;99625.06;;;22.70;35.02
42603;BME280;28233;55.748;48.752;2023-05-19T09:18:55;99625.47;;;22.72;35.77
42603;BME280;28233;55.748;48.752;2023-05-19T09:21:00;99632.63;;;22.80;33.63
42603;BME280;28233;55.748;48.752;2023-05-19T09:23:04;99627.81;;;22.80;33.08
42603;BME280;28233;55.748;48.752;2023-05-19T09:25:17;99637.41;;;22.90;31.38
42603;BME280;28233;55.748;48.752;2023-05-19T09:27:21;99630.59;;;22.95;30.39
42603;BME280;28233;55.748;48.752;2023-05-19T09:29:24;99633.00;;;22.96;30.71
42603;BME280;28233;55.748;48.752;2023-05-19T09:31:30;99627.00;;;22.94;29.68
42603;BME280;28233;55.748;48.752;2023-05-19T09:33:39;99625.03;;;22.91;29.66
42603;BME280;28233;55.748;48.752;2023-05-19T09:35:47;99618.63;;;22.87;28.57
42603;BME280;28233;55.748;48.752;2023-05-19T09:37:49;99618.59;;;22.94;29.98
42603;BME280;28233;55.748;48.752;2023-05-19T09:39:52;99617.78;;;22.97;28.65
42603;BME280;28233;55.748;48.752;2023-05-19T09:41:55;99612.63;;;23.03;29.51
42603;BME280;28233;55.748;48.752;2023-05-19T09:44:01;99627.03;;;23.02;29.27
42603;BME280;28233;55.748;48.752;2023-05-19T09:46:08;99612.59;;;22.92;28.69
42603;BME280;28233;55.748;48.752;2023-05-19T09:48:14;99623.41;;;22.83;27.96
42603;BME280;28233;55.748;48.752;2023-05-19T09:50:17;99614.22;;;22.86;28.28
42603;BME280;28233;55.748;48.752;2023-05-19T09:52:20;99604.63;;;22.91;29.45
42603;BME280;28233;55.748;48.752;2023-05-19T09:54:24;99611.41;;;23.04;30.24
42603;BME280;28233;55.748;48.752;2023-05-19T09:56:30;99603.38;;;23.17;29.29
42603;BME280;28233;55.748;48.752;2023-05-19T09:58:36;99610.16;;;23.27;30.34
42603;BME280;28233;55.748;48.752;2023-05-19T10:00:39;99609.31;;;23.33;28.80
42603;BME280;28233;55.748;48.752;2023-05-19T10:02:46;99610.06;;;23.45;31.03
42603;BME280;28233;55.748;48.752;2023-05-19T10:04:50;99611.66;;;23.42;31.99
42603;BME280;28233;55.748;48.752;2023-05-19T10:06:55;99612.03;;;23.51;29.33
42603;BME280;28233;55.748;48.752;2023-05-19T10:09:01;99612.34;;;23.71;29.46
42603;BME280;28233;55.748;48.752;2023-05-19T10:11:05;99610.69;;;23.84;29.78
42603;BME280;28233;55.748;48.752;2023-05-19T10:13:09;99607.09;;;23.88;29.70
42603;BME280;28233;55.748;48.752;2023-05-19T10:15:14;99616.28;;;23.88;28.87
42603;BME280;28233;55.748;48.752;2023-05-19T10:17:17;99619.09;;;23.88;28.21
42603;BME280;28233;55.748;48.752;2023-05-19T10:19:21;99617.91;;;23.86;26.81
42603;BME280;28233;55.748;48.752;2023-05-19T10:21:24;99617.13;;;23.85;28.00
42603;BME280;28233;55.748;48.752;2023-05-19T10:23:27;99615.09;;;23.86;26.56
42603;BME280;28233;55.748;48.752;2023-05-19T10:25:31;99608.19;;;24.01;28.49
42603;BME280;28233;55.748;48.752;2023-05-19T10:27:37;99609.28;;;24.18;26.70
42603;BME280;28233;55.748;48.752;2023-05-19T10:29:48;99598.69;;;24.36;26.56
42603;BME280;28233;55.748;48.752;2023-05-19T10:31:52;99605.44;;;24.50;29.61
42603;BME280;28233;55.748;48.752;2023-05-19T10:38:47;99596.88;;;24.64;29.84
42603;BME280;28233;55.748;48.752;2023-05-19T10:45:47;99594.00;;;25.09;27.12
42603;BME280;28233;55.748;48.752;2023-05-19T10:47:50;99600.78;;;25.15;28.32
42603;BME280;28233;55.748;48.752;2023-05-19T10:49:53;99597.22;;;25.11;26.99
42603;BME280;28233;55.748;48.752;2023-05-19T10:51:57;99591.19;;;25.13;27.50
42603;BME280;28233;55.748;48.752;2023-05-19T10:54:06;99593.09;;;25.23;27.97
42603;BME280;28233;55.748;48.752;2023-05-19T10:56:30;99590.25;;;25.26;26.96
42603;BME280;28233;55.748;48.752;2023-05-19T11:00:45;99596.69;;;25.23;25.83
42603;BME280;28233;55.748;48.752;2023-05-19T11:02:48;99591.00;;;25.30;26.34
42603;BME280;28233;55.748;48.752;2023-05-19T11:05:12;99592.03;;;25.44;27.42
42603;BME280;28233;55.748;48.752;2023-05-19T11:07:22;99595.09;;;25.57;27.24
42603;BME280;28233;55.748;48.752;2023-05-19T11:09:26;99591.84;;;25.58;27.15
42603;BME280;28233;55.748;48.752;2023-05-19T11:11:52;99590.94;;;25.65;28.03
42603;BME280;28233;55.748;48.752;2023-05-19T11:13:55;99579.75;;;25.92;25.73
42603;BME280;28233;55.748;48.752;2023-05-19T11:16:06;99590.44;;;26.28;27.03
42603;BME280;28233;55.748;48.752;2023-05-19T11:18:13;99584.69;;;26.35;26.41
42603;BME280;28233;55.748;48.752;2023-05-19T11:22:27;99578.69;;;26.33;24.62
42603;BME280;28233;55.748;48.752;2023-05-19T11:24:42;99574.34;;;26.28;23.63